Time;durP1;ratioP1;P1;durP2;ratioP2;P2;SDS_P1;SDS_P2;PMS_P1;PMS_P2;Temp;Humidity;BMP_temperature;BMP_pressure;BME280_temperature;BME280_humidity;BME280_pressure;Samples;Min_cycle;Max_cycle;Signal;HPM_P1;HPM_P2
2022/03/11 00:02:22;;;;;;;19.30;7.97;;;;;;;3.92;37.06;100887.97;4427463;80;44007;-74
2022/03/11 00:08:23;;;;;;;20.52;8.75;;;;;;;4.00;36.88;100892.58;4437310;79;43942;-74
2022/03/11 00:14:24;;;;;;;22.45;9.20;;;;;;;4.30;36.41;100882.23;4443202;80;43983;-74
2022/03/11 00:20:26;;;;;;;23.22;8.93;;;;;;;4.01;36.79;100888.45;4432592;80;43931;-74
2022/03/11 00:26:28;;;;;;;26.50;10.30;;;;;;;3.93;36.87;100883.50;4436975;80;43265;-74
2022/03/11 00:32:29;;;;;;;27.98;10.65;;;;;;;3.75;37.32;100879.73;4426689;80;43413;-74
2022/03/11 00:38:30;;;;;;;25.70;10.35;;;;;;;3.15;38.40;100874.02;4393802;79;43088;-73
2022/03/11 00:44:32;;;;;;;25.55;9.85;;;;;;;3.60;37.98;100874.00;4444397;80;42363;-76
2022/03/11 00:50:33;;;;;;;25.70;9.55;;;;;;;3.69;37.82;100873.64;4439606;80;41944;-72
2022/03/11 00:56:35;;;;;;;27.58;10.15;;;;;;;3.59;38.15;100868.81;4440565;80;43439;-73
2022/03/11 01:02:38;;;;;;;26.30;11.38;;;;;;;3.26;38.92;100870.89;4454332;80;43454;-73
2022/03/11 01:08:40;;;;;;;25.25;10.65;;;;;;;2.88;39.58;100873.34;4358073;81;43228;-73
2022/03/11 01:14:41;;;;;;;31.37;11.18;;;;;;;2.90;39.82;100881.50;4348201;81;43500;-73
2022/03/11 01:20:42;;;;;;;28.05;11.12;;;;;;;3.18;39.31;100880.89;4452721;80;43436;-72
2022/03/11 01:26:44;;;;;;;28.75;11.38;;;;;;;2.69;40.29;100882.91;4355926;80;43516;-72
2022/03/11 01:32:47;;;;;;;30.27;10.55;;;;;;;2.69;40.43;100870.96;4356899;81;43429;-74
2022/03/11 01:38:48;;;;;;;27.07;10.70;;;;;;;2.65;40.42;100869.53;4330802;81;43462;-71
2022/03/11 01:44:52;;;;;;;31.33;10.93;;;;;;;2.64;40.50;100872.69;4376769;80;43477;-74
2022/03/11 01:50:53;;;;;;;27.50;10.70;;;;;;;2.64;40.48;100874.02;4389216;80;43445;-73
2022/03/11 01:56:54;;;;;;;28.38;11.30;;;;;;;3.13;39.87;100864.03;4446225;78;43493;-73
2022/03/11 02:02:55;;;;;;;26.40;10.28;;;;;;;3.31;39.17;100868.65;4464649;80;43203;-72
2022/03/11 02:08:58;;;;;;;25.02;9.68;;;;;;;3.32;39.01;100876.97;4459048;78;42758;-71
2022/03/11 02:15:04;;;;;;;26.02;10.60;;;;;;;3.21;39.28;100877.95;4418128;79;43352;-72
2022/03/11 02:21:05;;;;;;;29.90;10.78;;;;;;;2.77;40.06;100882.23;4378331;81;43413;-73
2022/03/11 02:27:06;;;;;;;25.92;10.03;;;;;;;2.93;39.65;100885.71;4318939;80;43463;-72
2022/03/11 02:33:10;;;;;;;25.15;9.85;;;;;;;2.80;39.80;100885.94;4363197;81;43950;-71
2022/03/11 02:39:11;;;;;;;24.60;9.98;;;;;;;3.07;39.41;100888.48;4350619;81;44473;-73
2022/03/11 02:45:12;;;;;;;28.83;10.88;;;;;;;2.84;39.63;100886.52;4381175;80;43479;-73
2022/03/11 02:51:13;;;;;;;27.60;10.10;;;;;;;3.12;39.30;100878.77;4349641;81;43469;-72
2022/03/11 02:57:19;;;;;;;27.13;10.48;;;;;;;2.89;39.49;100896.27;4357523;81;43412;-73
2022/03/11 03:03:20;;;;;;;26.37;9.68;;;;;;;3.02;39.05;100889.36;4400059;79;42793;-73
2022/03/11 03:09:21;;;;;;;32.08;12.23;;;;;;;2.91;39.31;100887.16;4434097;80;43491;-74
2022/03/11 03:15:23;;;;;;;29.18;11.00;;;;;;;3.01;39.31;100889.86;4451305;79;43448;-72
2022/03/11 03:21:26;;;;;;;26.02;10.18;;;;;;;3.38;38.76;100891.53;4427670;80;43197;-73
2022/03/11 03:27:27;;;;;;;28.05;10.32;;;;;;;3.32;38.69;100893.77;4441694;79;43686;-72
2022/03/11 03:33:28;;;;;;;25.80;10.80;;;;;;;2.94;39.32;100887.39;4426256;80;43146;-73
2022/03/11 03:39:29;;;;;;;27.70;10.35;;;;;;;2.77;39.66;100894.19;4438825;80;43420;-74
2022/03/11 03:45:31;;;;;;;23.83;9.28;;;;;;;2.99;39.44;100880.34;4442131;79;43968;-73
2022/03/11 03:51:32;;;;;;;29.60;10.85;;;;;;;2.84;39.68;100880.73;4422642;80;43477;-71
2022/03/11 03:57:34;;;;;;;31.10;11.05;;;;;;;1.79;41.56;100877.23;4355470;80;43933;-71
2022/03/11 04:03:35;;;;;;;23.32;9.68;;;;;;;1.53;42.36;100885.05;4357962;80;43950;-71
2022/03/11 04:09:37;;;;;;;24.18;10.25;;;;;;;1.23;43.01;100884.44;4320656;80;43681;-71
2022/03/11 04:15:38;;;;;;;24.52;10.03;;;;;;;1.39;43.18;100884.03;4383141;81;44502;-71
2022/03/11 04:21:39;;;;;;;26.62;11.03;;;;;;;1.21;43.48;100894.33;4373968;80;43240;-71
2022/03/11 04:27:41;;;;;;;26.60;10.95;;;;;;;1.31;43.75;100891.76;4357508;80;43338;-72
2022/03/11 04:33:42;;;;;;;27.67;10.78;;;;;;;0.98;44.35;100895.67;4356108;81;43424;-73
2022/03/11 04:39:44;;;;;;;25.92;9.78;;;;;;;1.18;43.89;100890.11;4386605;81;42793;-73
2022/03/11 04:45:45;;;;;;;26.70;10.30;;;;;;;0.72;44.93;100901.71;4369706;80;43285;-77
2022/03/11 04:51:47;;;;;;;31.05;10.85;;;;;;;1.01;44.25;100895.91;4365373;81;43436;-73
2022/03/11 04:57:48;;;;;;;29.60;10.03;;;;;;;1.06;44.39;100897.23;4359968;80;43493;-73
2022/03/11 05:03:49;;;;;;;31.10;11.28;;;;;;;0.97;44.29;100903.26;4392221;80;43428;-74
2022/03/11 05:09:51;;;;;;;31.17;11.12;;;;;;;1.42;43.20;100895.70;4387581;80;43452;-74
2022/03/11 05:15:52;;;;;;;24.18;8.88;;;;;;;1.63;42.79;100896.23;4387385;80;44817;-75
2022/03/11 05:21:54;;;;;;;25.75;10.45;;;;;;;1.82;42.09;100895.53;4384681;81;43675;-73
2022/03/11 05:27:56;;;;;;;26.73;10.60;;;;;;;2.48;40.47;100895.75;4378007;80;43314;-74
2022/03/11 05:33:57;;;;;;;29.27;10.32;;;;;;;2.63;40.12;100898.04;4386411;79;43436;-74
2022/03/11 05:39:58;;;;;;;25.72;9.28;;;;;;;2.58;40.23;100909.56;4384643;81;43971;-74
2022/03/11 05:46:00;;;;;;;26.02;10.53;;;;;;;2.21;40.75;100907.75;4389880;78;42998;-73
2022/03/11 05:52:01;;;;;;;27.80;10.90;;;;;;;2.27;40.71;100925.47;4399624;81;43448;-72
2022/03/11 05:58:02;;;;;;;33.23;11.55;;;;;;;2.55;40.09;100928.40;4408849;80;44134;-74
2022/03/11 06:04:04;;;;;;;30.20;10.93;;;;;;;2.07;40.69;100931.97;4408428;81;43436;-73
2022/03/11 06:10:08;;;;;;;27.22;11.28;;;;;;;2.14;41.04;100937.59;4455460;80;43380;-73
2022/03/11 06:16:09;;;;;;;31.00;11.38;;;;;;;2.56;40.82;100935.42;4384947;80;43413;-70
2022/03/11 06:22:10;;;;;;;29.00;11.48;;;;;;;3.26;39.48;100953.31;4387677;80;43444;-70
2022/03/11 06:28:12;;;;;;;31.68;10.65;;;;;;;3.25;39.41;100947.64;4405108;80;43519;-72
2022/03/11 06:34:13;;;;;;;26.65;11.05;;;;;;;3.51;38.74;100951.97;4391836;80;43231;-70
2022/03/11 06:40:14;;;;;;;30.85;11.25;;;;;;;3.67;38.63;100936.80;4397402;80;43452;-72
2022/03/11 06:46:16;;;;;;;31.50;12.28;;;;;;;3.52;38.98;100945.66;4403420;80;44217;-71
2022/03/11 06:52:17;;;;;;;29.37;10.88;;;;;;;3.03;39.33;100959.66;4372962;80;43433;-75
2022/03/11 06:58:19;;;;;;;31.73;11.75;;;;;;;3.15;39.54;100951.58;4374789;80;43472;-72
2022/03/11 07:04:20;;;;;;;32.35;12.82;;;;;;;2.60;40.22;100963.38;4374601;81;44146;-73
2022/03/11 07:10:21;;;;;;;24.55;9.85;;;;;;;2.86;40.40;100965.59;4398690;80;43938;-73
2022/03/11 07:16:23;;;;;;;31.23;12.55;;;;;;;2.88;40.21;100971.64;4373603;80;43457;-74
2022/03/11 07:22:25;;;;;;;29.65;12.10;;;;;;;3.18;40.10;100968.61;4382455;81;43409;-74
2022/03/11 07:28:27;;;;;;;24.80;9.20;;;;;;;3.54;39.70;100960.98;4357727;80;43930;-74
2022/03/11 07:34:28;;;;;;;21.33;9.10;;;;;;;3.55;39.16;100967.98;4364674;81;43946;-73
2022/03/11 07:40:29;;;;;;;22.98;9.43;;;;;;;3.60;38.85;100960.45;4379960;79;43960;-73
2022/03/11 07:46:31;;;;;;;29.75;10.70;;;;;;;3.52;39.38;100955.45;4386664;81;43444;-76
2022/03/11 07:52:33;;;;;;;22.22;9.15;;;;;;;3.75;38.94;100952.91;4369154;79;43950;-76
2022/03/11 07:58:34;;;;;;;19.10;8.78;;;;;;;3.74;38.76;100951.20;4362310;80;43980;-78
2022/03/11 08:04:37;;;;;;;21.25;7.90;;;;;;;4.22;37.88;100953.14;4381960;80;43954;-81
2022/03/11 08:10:39;;;;;;;16.37;7.30;;;;;;;4.99;36.27;100953.92;4363707;80;44022;-80
2022/03/11 08:16:40;;;;;;;14.85;6.15;;;;;;;4.99;35.85;100947.74;4356804;80;43945;-80
2022/03/11 08:22:45;;;;;;;19.07;8.10;;;;;;;5.20;34.38;100948.84;4376875;80;43931;-76
2022/03/11 08:28:46;;;;;;;21.82;7.42;;;;;;;4.84;35.52;100951.38;4366218;81;43976;-75
2022/03/11 08:34:47;;;;;;;16.25;6.87;;;;;;;5.60;34.31;100946.77;4362508;81;43988;-75
2022/03/11 08:40:49;;;;;;;12.85;5.70;;;;;;;5.64;33.82;100956.16;4370429;80;43328;-74
2022/03/11 08:46:50;;;;;;;9.60;4.35;;;;;;;5.79;32.74;100955.14;4374852;81;43233;-74
2022/03/11 08:52:52;;;;;;;12.20;4.62;;;;;;;5.83;30.71;100950.31;4381174;79;43230;-75
2022/03/11 08:58:54;;;;;;;11.80;4.30;;;;;;;5.91;31.13;100958.92;4345922;81;43284;-74
2022/03/11 09:04:55;;;;;;;10.40;4.78;;;;;;;6.14;29.90;100960.62;4326761;80;43291;-74
2022/03/11 09:10:56;;;;;;;14.23;4.95;;;;;;;6.24;30.00;100950.69;4384433;79;43956;-74
2022/03/11 09:16:59;;;;;;;13.18;5.90;;;;;;;6.14;30.58;100948.61;4395494;80;43602;-76
2022/03/11 09:23:02;;;;;;;13.70;6.22;;;;;;;5.70;31.20;100942.20;4333904;80;43921;-76
2022/03/11 09:29:04;;;;;;;13.70;5.70;;;;;;;6.46;30.54;100934.32;4404707;79;43594;-74
2022/03/11 09:35:07;;;;;;;14.98;5.25;;;;;;;6.50;29.73;100939.20;4388274;80;43932;-74
2022/03/11 09:41:09;;;;;;;12.80;5.33;;;;;;;6.22;30.56;100929.98;4383782;79;43220;-74
2022/03/11 09:47:12;;;;;;;9.78;4.75;;;;;;;6.25;29.93;100932.84;4315493;80;42990;-75
2022/03/11 09:53:14;;;;;;;10.63;4.97;;;;;;;6.30;29.01;100933.23;4364132;80;43263;-75
2022/03/11 09:59:15;;;;;;;12.03;5.40;;;;;;;6.56;28.95;100936.39;4428535;79;43251;-77
2022/03/11 10:05:17;;;;;;;10.32;4.65;;;;;;;5.93;29.11;100923.55;4428124;79;43251;-76
2022/03/11 10:11:27;;;;;;;7.35;3.42;;;;;;;6.31;28.26;100930.90;4357484;80;42700;-77
2022/03/11 10:17:44;;;;;;;9.40;4.37;;;;;;;7.12;26.77;100914.58;4365422;80;42697;-75
2022/03/11 10:23:49;;;;;;;11.50;4.12;;;;;;;6.78;27.07;100932.34;4435442;80;43227;-77
2022/03/11 10:29:51;;;;;;;9.48;3.55;;;;;;;6.23;26.81;100926.31;4444837;79;42727;-75
2022/03/11 10:35:52;;;;;;;7.50;3.02;;;;;;;7.29;25.25;100920.84;4431131;78;42561;-77
2022/03/11 10:42:01;;;;;;;8.78;4.25;;;;;;;6.75;25.10;100927.81;4354568;80;42740;-74
2022/03/11 10:48:03;;;;;;;9.45;4.10;;;;;;;7.94;24.84;100908.54;4353955;80;42753;-73
2022/03/11 10:54:11;;;;;;;11.05;4.40;;;;;;;7.51;25.14;100907.84;4355573;81;43247;-73
2022/03/11 11:00:26;;;;;;;9.85;3.83;;;;;;;7.15;25.39;100910.27;4357290;80;28594;-74
2022/03/11 11:06:28;;;;;;;8.55;3.90;;;;;;;7.78;24.04;100897.81;4334699;80;42729;-74
2022/03/11 11:12:31;;;;;;;10.45;3.90;;;;;;;7.50;24.17;100912.86;4353532;80;43248;-75
2022/03/11 11:18:33;;;;;;;8.78;3.92;;;;;;;7.38;24.13;100894.93;4356547;80;42703;-75
2022/03/11 11:24:37;;;;;;;10.48;3.47;;;;;;;8.24;23.40;100890.59;4358102;81;43275;-74
2022/03/11 11:30:40;;;;;;;7.92;3.87;;;;;;;8.56;23.45;100880.00;4374361;80;42723;-77
2022/03/11 11:36:41;;;;;;;8.90;3.90;;;;;;;8.78;23.38;100877.91;4344201;81;42695;-77
2022/03/11 11:43:14;;;;;;;7.60;3.60;;;;;;;8.35;23.40;100872.81;4348936;81;42774;-75
2022/03/11 11:49:22;;;;;;;12.25;3.80;;;;;;;8.99;23.25;100862.20;4364166;80;28493;-73
2022/03/11 11:55:21;;;;;;;6.67;3.10;;;;;;;8.95;22.76;100856.36;4370311;80;41875;-73
2022/03/11 12:01:44;;;;;;;7.15;3.50;;;;;;;9.00;21.93;100861.20;4364662;80;42735;-73
2022/03/11 12:07:48;;;;;;;7.75;3.27;;;;;;;8.79;21.83;100850.08;4349722;81;42737;-73
2022/03/11 12:13:55;;;;;;;7.10;2.83;;;;;;;8.43;22.12;100847.81;4363253;81;41889;-72
2022/03/11 12:19:56;;;;;;;6.78;2.75;;;;;;;8.95;21.97;100834.89;4357849;80;41893;-71
2022/03/11 12:26:01;;;;;;;5.78;2.60;;;;;;;8.88;21.08;100842.00;4359739;80;43394;-74
2022/03/11 12:32:09;;;;;;;5.28;2.65;;;;;;;8.87;21.55;100833.09;4406185;80;43470;-73
2022/03/11 12:38:14;;;;;;;5.87;2.42;;;;;;;8.82;21.96;100820.73;4428544;80;43455;-73
2022/03/11 12:44:16;;;;;;;7.93;3.00;;;;;;;8.55;21.20;100820.70;4365175;80;28519;-73
2022/03/11 12:50:22;;;;;;;6.00;2.75;;;;;;;9.28;21.64;100806.53;4392359;80;43418;-73
2022/03/11 12:56:24;;;;;;;3.95;2.10;;;;;;;8.48;21.69;100810.63;4382524;80;43497;-75
2022/03/11 13:02:26;;;;;;;5.80;2.40;;;;;;;9.78;20.48;100802.59;4382964;80;43480;-76
2022/03/11 13:08:30;;;;;;;6.05;2.15;;;;;;;8.81;20.64;100804.81;4378321;80;43402;-75
2022/03/11 13:14:31;;;;;;;5.37;2.33;;;;;;;9.31;20.95;100798.11;4376126;80;43431;-73
2022/03/11 13:20:56;;;;;;;6.65;2.15;;;;;;;9.30;20.72;100796.94;4370395;80;28524;-72
2022/03/11 13:27:08;;;;;;;7.00;2.40;;;;;;;9.02;20.90;100781.39;4338933;81;28482;-77
2022/03/11 13:33:16;;;;;;;4.62;2.15;;;;;;;9.53;21.09;100777.29;4345738;81;43423;-75
2022/03/11 13:39:21;;;;;;;7.55;2.83;;;;;;;9.35;20.92;100769.06;4367295;80;28560;-74
2022/03/11 13:45:31;;;;;;;5.37;2.40;;;;;;;10.02;20.66;100771.44;4424103;79;28514;-74
2022/03/11 13:51:49;;;;;;;7.47;2.70;;;;;;;9.41;20.71;100760.80;4308628;81;28516;-75
2022/03/11 13:57:50;;;;;;;5.87;2.05;;;;;;;9.70;20.31;100753.30;4455187;78;28518;-75
2022/03/11 14:03:52;;;;;;;4.92;2.30;;;;;;;9.17;20.50;100751.41;4320518;81;43429;-73
2022/03/11 14:09:55;;;;;;;4.50;2.10;;;;;;;8.93;20.90;100761.32;4332388;80;43450;-74
2022/03/11 14:16:07;;;;;;;5.47;1.98;;;;;;;9.70;19.99;100742.56;4322997;82;28540;-81
2022/03/11 14:22:10;;;;;;;4.83;1.90;;;;;;;9.42;20.17;100743.15;4327238;82;28488;-79
2022/03/11 14:28:13;;;;;;;4.97;2.25;;;;;;;9.50;20.04;100739.58;4318830;82;28562;-81
2022/03/11 14:34:14;;;;;;;4.30;2.20;;;;;;;9.57;20.02;100731.63;4323310;82;43394;-77
2022/03/11 14:40:16;;;;;;;6.40;2.47;;;;;;;9.50;20.18;100732.86;4306993;80;28595;-80
2022/03/11 14:46:18;;;;;;;5.22;2.67;;;;;;;9.34;20.16;100729.30;4342544;82;28481;-84
2022/03/11 14:52:19;;;;;;;5.92;2.35;;;;;;;9.71;21.11;100717.37;4317103;81;28485;-80
2022/03/11 14:58:21;;;;;;;4.47;2.20;;;;;;;9.20;19.97;100716.69;4337114;82;43403;-82
2022/03/11 15:04:22;;;;;;;5.30;2.47;;;;;;;9.20;19.89;100712.66;4324059;82;28519;-81
2022/03/11 15:10:23;;;;;;;3.85;1.87;;;;;;;9.91;19.86;100703.39;4322223;80;43439;-79
2022/03/11 15:16:25;;;;;;;5.00;2.08;;;;;;;9.28;20.16;100703.69;4336903;82;43368;-81
2022/03/11 15:22:28;;;;;;;5.72;2.30;;;;;;;9.42;19.61;100697.51;4322261;82;43429;-81
2022/03/11 15:28:31;;;;;;;6.72;2.50;;;;;;;8.78;20.45;100706.27;4340674;82;28520;-81
2022/03/11 15:34:33;;;;;;;3.85;2.30;;;;;;;9.12;19.85;100698.81;4326904;82;28601;-80
2022/03/11 15:40:36;;;;;;;5.42;2.30;;;;;;;9.34;20.29;100685.53;4345160;82;28523;-80
2022/03/11 15:46:38;;;;;;;5.25;2.15;;;;;;;9.57;20.10;100688.13;4326968;82;28502;-79
2022/03/11 15:52:40;;;;;;;8.05;2.37;;;;;;;9.40;20.31;100679.41;4325273;82;28583;-79
2022/03/11 15:58:41;;;;;;;5.47;2.52;;;;;;;9.60;20.32;100672.17;4331420;82;28504;-78
2022/03/11 16:04:42;;;;;;;4.62;1.90;;;;;;;9.36;20.58;100671.41;4338831;82;43417;-89
2022/03/11 16:10:45;;;;;;;7.25;2.00;;;;;;;8.66;20.13;100675.52;4339454;82;43539;-79
2022/03/11 16:16:46;;;;;;;2.72;1.50;;;;;;;8.40;20.31;100684.67;4319569;81;43237;-75
2022/03/11 16:22:47;;;;;;;3.80;2.05;;;;;;;8.41;20.29;100684.19;4330011;80;43423;-78
2022/03/11 16:28:49;;;;;;;3.70;1.67;;;;;;;8.07;20.93;100680.33;4326314;82;43508;-78
2022/03/11 16:34:51;;;;;;;5.28;2.20;;;;;;;8.34;21.38;100678.70;4329495;82;43441;-78
2022/03/11 16:40:54;;;;;;;4.55;2.40;;;;;;;8.02;22.19;100685.36;4335277;80;43431;-80
2022/03/11 16:46:55;;;;;;;6.78;2.87;;;;;;;8.00;22.69;100698.59;4333463;82;41848;-76
2022/03/11 16:52:57;;;;;;;6.22;2.90;;;;;;;7.98;22.96;100698.78;4340083;81;43419;-80
2022/03/11 16:58:58;;;;;;;6.45;2.50;;;;;;;7.78;23.46;100701.00;4341896;81;43516;-78
2022/03/11 17:05:02;;;;;;;6.90;2.90;;;;;;;7.70;23.86;100713.06;4344449;81;41872;-77
2022/03/11 17:11:03;;;;;;;9.60;3.45;;;;;;;7.68;24.01;100715.94;4349668;80;42756;-79
2022/03/11 17:17:10;;;;;;;6.67;3.02;;;;;;;7.44;24.14;100713.61;4342539;81;41856;-77
2022/03/11 17:23:14;;;;;;;7.60;3.47;;;;;;;7.26;24.41;100711.13;4346830;80;42881;-82
2022/03/11 17:29:15;;;;;;;8.40;3.60;;;;;;;7.52;24.24;100718.14;4354123;80;42759;-78
2022/03/11 17:35:16;;;;;;;11.57;3.37;;;;;;;7.48;24.29;100720.31;4351868;81;43290;-79
2022/03/11 17:41:19;;;;;;;9.93;4.53;;;;;;;7.45;24.37;100719.33;4356588;81;42741;-77
2022/03/11 17:47:23;;;;;;;12.18;4.67;;;;;;;7.12;24.76;100720.65;4348505;81;43230;-78
2022/03/11 17:53:24;;;;;;;13.22;4.37;;;;;;;7.42;24.47;100717.48;4350972;80;43281;-77
2022/03/11 17:59:26;;;;;;;12.20;4.58;;;;;;;7.65;24.42;100713.58;4377139;80;43296;-78
2022/03/11 18:05:29;;;;;;;17.23;5.67;;;;;;;7.26;24.79;100716.47;4399835;80;43934;-78
2022/03/11 18:11:31;;;;;;;16.10;4.90;;;;;;;6.61;25.53;100716.27;4369575;80;43938;-78
2022/03/11 18:17:33;;;;;;;15.60;6.95;;;;;;;7.14;25.18;100713.80;4351406;81;43934;-80
2022/03/11 18:23:37;;;;;;;19.73;7.67;;;;;;;6.97;25.51;100710.63;4361580;81;44022;-79
2022/03/11 18:29:38;;;;;;;15.38;6.97;;;;;;;6.75;25.82;100715.28;4372656;81;43942;-78
2022/03/11 18:35:40;;;;;;;15.68;6.35;;;;;;;6.85;25.83;100728.00;4340367;81;44028;-79
2022/03/11 18:41:42;;;;;;;20.08;7.05;;;;;;;7.21;25.60;100718.31;4381659;80;43956;-82
2022/03/11 18:47:44;;;;;;;17.20;6.80;;;;;;;7.22;25.70;100721.32;4374770;80;43903;-79
2022/03/11 18:53:45;;;;;;;18.32;7.37;;;;;;;7.05;25.66;100719.66;4348535;81;43954;-82
2022/03/11 18:59:47;;;;;;;17.77;7.47;;;;;;;6.91;25.92;100730.00;4335842;81;43928;-78
2022/03/11 19:05:50;;;;;;;15.18;6.72;;;;;;;6.93;25.96;100723.16;4338308;82;43898;-76
2022/03/11 19:11:52;;;;;;;21.90;7.65;;;;;;;7.04;25.78;100720.67;4337236;82;43934;-76
2022/03/11 19:17:54;;;;;;;28.45;10.35;;;;;;;7.32;25.52;100735.03;4317282;82;43500;-75
2022/03/11 19:23:55;;;;;;;46.35;18.92;;;;;;;7.19;25.62;100737.71;4346956;80;43784;-74
2022/03/11 19:29:57;;;;;;;71.77;32.38;;;;;;;6.86;25.90;100727.48;4337401;81;44133;-75
2022/03/11 19:36:00;;;;;;;64.12;26.85;;;;;;;6.67;26.03;100740.98;4333913;82;43386;-77
2022/03/11 19:42:05;;;;;;;63.15;26.85;;;;;;;6.44;26.33;100739.41;4338138;81;43359;-77
2022/03/11 19:48:08;;;;;;;57.70;24.25;;;;;;;6.58;26.29;100737.13;4344020;82;28571;-76
2022/03/11 19:54:10;;;;;;;56.95;25.20;;;;;;;6.31;26.72;100737.22;4344919;81;43701;-76
2022/03/11 20:00:13;;;;;;;46.02;19.90;;;;;;;6.46;26.49;100741.94;4328503;82;43764;-77
2022/03/11 20:06:14;;;;;;;36.35;16.42;;;;;;;6.45;26.17;100744.27;4336139;81;44458;-75
2022/03/11 20:12:21;;;;;;;30.48;12.53;;;;;;;6.71;26.06;100738.83;4319609;82;43535;-77
2022/03/11 20:18:20;;;;;;;24.05;10.10;;;;;;;6.68;25.87;100744.52;4342512;81;44458;-77
2022/03/11 20:24:24;;;;;;;26.02;10.35;;;;;;;6.76;25.69;100742.34;4321995;81;42757;-77
2022/03/11 20:30:25;;;;;;;26.55;10.90;;;;;;;6.63;25.75;100739.66;4333298;81;43449;-76
2022/03/11 20:36:28;;;;;;;26.90;10.20;;;;;;;6.74;25.64;100737.67;4300770;82;43368;-76
2022/03/11 20:42:29;;;;;;;23.70;9.20;;;;;;;6.34;25.88;100750.24;4310784;81;43938;-76
2022/03/11 20:48:32;;;;;;;20.80;9.95;;;;;;;6.14;26.21;100749.64;4330180;82;44500;-77
2022/03/11 20:54:36;;;;;;;23.25;10.28;;;;;;;5.81;26.64;100740.95;4360611;80;43697;-78
2022/03/11 21:00:37;;;;;;;24.75;10.10;;;;;;;5.62;27.08;100741.15;4368571;81;44498;-77
2022/03/11 21:06:38;;;;;;;29.02;11.35;;;;;;;5.54;27.33;100737.42;4364991;81;43414;-77
2022/03/11 21:12:44;;;;;;;28.20;12.50;;;;;;;5.45;27.63;100738.35;4435486;79;43460;-77
2022/03/11 21:18:46;;;;;;;33.95;13.78;;;;;;;5.54;27.76;100736.60;4440698;78;28497;-76
2022/03/11 21:24:47;;;;;;;34.13;13.20;;;;;;;5.46;28.18;100731.20;4364327;80;44257;-77
2022/03/11 21:30:50;;;;;;;34.60;13.18;;;;;;;5.30;28.45;100730.07;4364258;80;44069;-77
2022/03/11 21:36:53;;;;;;;31.73;11.38;;;;;;;5.24;28.52;100728.86;4337073;81;43437;-78
2022/03/11 21:42:55;;;;;;;36.40;14.20;;;;;;;5.22;28.56;100722.85;4348168;81;44460;-79
2022/03/11 21:48:57;;;;;;;35.38;13.15;;;;;;;5.24;28.68;100718.20;4358748;80;44475;-80
2022/03/11 21:55:00;;;;;;;34.55;14.40;;;;;;;4.84;29.37;100716.84;4361147;80;44107;-81
2022/03/11 22:01:02;;;;;;;37.65;12.73;;;;;;;5.20;29.08;100719.98;4351802;81;44484;-80
2022/03/11 22:07:06;;;;;;;31.97;12.65;;;;;;;4.90;29.54;100721.58;4344473;80;44135;-80
2022/03/11 22:13:08;;;;;;;39.90;14.87;;;;;;;4.82;29.91;100723.67;4352387;80;44466;-78
2022/03/11 22:19:09;;;;;;;35.08;13.65;;;;;;;4.77;29.97;100725.13;4331049;81;44103;-79
2022/03/11 22:25:11;;;;;;;30.57;12.03;;;;;;;4.83;30.03;100724.02;4340477;81;43427;-77
2022/03/11 22:31:12;;;;;;;32.75;12.45;;;;;;;4.72;30.02;100715.73;4358281;80;43721;-77
2022/03/11 22:37:14;;;;;;;27.50;11.55;;;;;;;4.67;30.27;100710.52;4347957;81;43384;-78
2022/03/11 22:43:16;;;;;;;33.42;11.97;;;;;;;4.54;30.41;100717.56;4344518;81;44151;-78
2022/03/11 22:49:18;;;;;;;27.37;11.20;;;;;;;4.34;30.60;100715.02;4330276;81;43458;-78
2022/03/11 22:55:28;;;;;;;32.80;12.35;;;;;;;4.63;30.52;100715.81;4337481;80;44096;-78
2022/03/11 23:01:27;;;;;;;33.80;13.38;;;;;;;4.73;30.45;100710.75;4420281;79;44324;-78
2022/03/11 23:13:49;;;;;;;32.03;11.55;;;;;;;4.68;30.54;100724.18;4343870;80;44084;-79
2022/03/11 23:19:50;;;;;;;29.27;11.18;;;;;;;4.84;30.42;100711.03;4331787;80;43376;-79
2022/03/11 23:25:51;;;;;;;37.42;13.60;;;;;;;4.52;30.98;100716.38;4359930;80;44494;-80
2022/03/11 23:31:53;;;;;;;36.30;14.65;;;;;;;4.48;31.27;100720.82;4380007;80;44451;-78
2022/03/11 23:37:54;;;;;;;39.08;14.15;;;;;;;4.52;31.33;100724.37;4340653;80;44458;-79
2022/03/11 23:43:56;;;;;;;34.55;13.22;;;;;;;4.29;31.78;100717.27;4365243;80;44263;-79
2022/03/11 23:49:57;;;;;;;37.45;13.35;;;;;;;4.30;31.99;100715.80;4360859;80;44471;-78
2022/03/11 23:56:00;;;;;;;40.20;13.65;;;;;;;4.24;32.24;100722.22;4354067;79;44416;-78
